Time;durP1;ratioP1;P1;durP2;ratioP2;P2;SDS_P1;SDS_P2;PMS_P1;PMS_P2;Temp;Humidity;BMP_temperature;BMP_pressure;BME280_temperature;BME280_humidity;BME280_pressure;Samples;Min_cycle;Max_cycle;Signal;HPM_P1;HPM_P2
2024/04/07 00:00:23;;;;;;;12.45;4.95;;;19.40;99.90;;;19.70;73.89;100760.03;4933939;29;20059;-66
2024/04/07 00:02:50;;;;;;;13.48;4.95;;;19.30;99.90;;;19.67;74.50;100761.97;4918149;29;20055;-66
2024/04/07 00:05:18;;;;;;;9.77;5.20;;;19.30;99.90;;;19.60;75.21;100760.50;4917943;29;20501;-66
2024/04/07 00:07:45;;;;;;;11.10;4.97;;;19.20;99.90;;;19.53;75.54;100770.63;4918304;29;20043;-66
2024/04/07 00:10:13;;;;;;;18.05;5.85;;;19.10;99.90;;;19.47;76.10;100786.13;4918027;29;20048;-66
2024/04/07 00:12:40;;;;;;;8.95;5.10;;;19.10;99.90;;;19.41;76.80;100795.31;4917760;29;20071;-66
2024/04/07 00:15:09;;;;;;;11.07;5.22;;;19.00;99.90;;;19.22;77.52;100786.22;4917671;29;20465;-66
2024/04/07 00:17:36;;;;;;;8.77;5.03;;;18.90;99.90;;;19.16;78.42;100813.31;4917709;29;20094;-66
2024/04/07 00:20:04;;;;;;;10.88;5.00;;;18.80;99.90;;;19.01;79.32;100821.94;4917564;29;20307;-66
2024/04/07 00:22:30;;;;;;;10.07;5.13;;;18.60;99.90;;;18.91;80.31;100809.88;4918058;29;20062;-66
2024/04/07 00:24:58;;;;;;;10.48;5.40;;;18.60;99.90;;;18.83;81.23;100799.41;4917618;29;20050;-65
2024/04/07 00:27:26;;;;;;;8.15;4.90;;;18.50;99.90;;;18.69;82.27;100801.78;4933373;29;20047;-66
2024/04/07 00:29:53;;;;;;;9.18;5.30;;;18.40;99.90;;;18.65;83.30;100812.66;4917478;29;20102;-65
2024/04/07 00:32:21;;;;;;;11.45;5.78;;;18.30;99.90;;;18.68;83.95;100825.94;4917305;29;20059;-65
2024/04/07 00:34:49;;;;;;;9.45;5.00;;;18.20;99.90;;;18.72;84.76;100838.28;4918080;29;20082;-66
2024/04/07 00:37:16;;;;;;;13.02;5.68;;;18.30;99.90;;;18.71;85.63;100849.94;4917278;29;20052;-65
2024/04/07 00:39:44;;;;;;;14.77;6.05;;;18.30;99.90;;;18.54;85.86;100860.44;4917255;29;20433;-65
2024/04/07 00:42:11;;;;;;;13.70;6.25;;;18.20;99.90;;;17.92;86.33;100766.31;4917283;29;20047;-66
2024/04/07 00:44:39;;;;;;;15.18;6.80;;;18.10;99.90;;;18.42;86.82;100859.09;4917110;29;20561;-65
2024/04/07 00:47:05;;;;;;;15.18;6.20;;;18.00;99.90;;;18.42;87.07;100859.09;4917442;29;20469;-66
2024/04/07 00:49:35;;;;;;;12.38;5.88;;;18.00;99.90;;;18.38;87.16;100853.84;4917292;29;20086;-66
2024/04/07 00:52:02;;;;;;;13.70;5.80;;;17.90;99.90;;;18.41;87.12;100854.59;4917179;29;20056;-67
2024/04/07 00:54:30;;;;;;;11.95;5.78;;;18.00;99.90;;;18.38;87.23;100857.41;4932844;29;20072;-66
2024/04/07 00:56:56;;;;;;;11.55;5.88;;;18.00;99.90;;;18.45;87.16;100850.91;4917235;29;20078;-66
2024/04/07 00:59:24;;;;;;;10.68;5.60;;;18.00;99.90;;;18.33;87.14;100851.31;4916998;29;20048;-65
2024/04/07 01:01:51;;;;;;;12.38;5.57;;;17.90;99.90;;;18.31;87.48;100852.34;4917107;29;20055;-66
2024/04/07 01:04:18;;;;;;;7.93;5.28;;;17.80;99.90;;;18.25;87.61;100848.09;4916884;29;20043;-66
2024/04/07 01:06:46;;;;;;;8.05;4.78;;;17.80;99.90;;;18.26;88.06;100848.94;4916834;29;20040;-66
2024/04/07 01:09:14;;;;;;;10.27;6.03;;;17.80;99.90;;;18.18;88.45;100840.28;4932637;29;20553;-66
2024/04/07 01:11:40;;;;;;;13.98;5.55;;;17.80;99.90;;;18.21;88.54;100834.84;4916768;29;20051;-66
2024/04/07 01:14:07;;;;;;;11.23;4.85;;;17.70;99.90;;;18.18;88.60;100840.28;4901163;29;20043;-65
2024/04/07 01:16:34;;;;;;;10.73;5.40;;;17.70;99.90;;;18.00;88.96;100826.63;4917104;29;20047;-65
2024/04/07 01:19:01;;;;;;;10.70;5.15;;;17.60;99.90;;;17.98;89.04;100833.84;4916589;29;20043;-66
2024/04/07 01:21:28;;;;;;;7.10;4.68;;;17.60;99.90;;;18.05;89.33;100839.88;4916959;29;20040;-65
2024/04/07 01:23:57;;;;;;;10.73;4.78;;;17.60;99.90;;;18.02;89.64;100840.00;4915828;29;20055;-66
2024/04/07 01:26:24;;;;;;;10.30;5.65;;;17.60;99.90;;;17.94;89.51;100832.22;4916582;29;20125;-66
2024/04/07 01:28:51;;;;;;;10.45;4.57;;;17.50;99.90;;;17.79;89.88;100815.81;4916988;29;20047;-65
2024/04/07 01:31:18;;;;;;;8.00;4.60;;;17.50;99.90;;;17.86;90.15;100844.13;4914530;29;20107;-65
2024/04/07 01:33:45;;;;;;;8.02;4.70;;;17.50;99.90;;;17.80;90.80;100855.91;4916488;29;20517;-65
2024/04/07 01:36:12;;;;;;;6.50;3.88;;;17.40;99.90;;;17.60;91.04;100822.72;4916654;29;20040;-65
2024/04/07 01:38:39;;;;;;;8.27;4.63;;;17.30;99.90;;;17.62;91.47;100856.53;4916567;29;20512;-66
2024/04/07 01:41:07;;;;;;;6.70;4.20;;;17.20;99.90;;;17.46;92.08;100862.41;4932385;29;20409;-65
2024/04/07 01:43:34;;;;;;;9.20;4.00;;;17.10;99.90;;;17.40;92.76;100867.97;4916956;29;20043;-67
2024/04/07 01:46:03;;;;;;;7.07;3.95;;;17.00;99.90;;;17.30;93.60;100863.81;4916530;29;20065;-67
2024/04/07 01:48:31;;;;;;;7.70;4.68;;;16.90;99.90;;;17.34;94.20;100838.75;4932306;29;20067;-67
2024/04/07 01:50:57;;;;;;;8.98;4.47;;;16.90;99.90;;;17.23;94.82;100840.91;4918917;29;20043;-66
2024/04/07 01:53:25;;;;;;;11.23;4.43;;;16.80;99.90;;;17.14;95.17;100855.41;4920217;29;20052;-67
2024/04/07 01:55:53;;;;;;;10.35;5.05;;;16.80;99.90;;;16.97;95.15;100855.06;4920209;29;20052;-67
2024/04/07 01:58:21;;;;;;;9.25;4.70;;;16.60;99.90;;;16.81;95.59;100838.63;4920169;29;20051;-67
2024/04/07 02:00:48;;;;;;;9.85;4.78;;;16.50;99.90;;;16.74;96.68;100828.19;4920263;29;20050;-67
2024/04/07 02:03:15;;;;;;;12.32;5.00;;;16.50;99.90;;;16.66;97.30;100841.75;4920295;29;20040;-67
2024/04/07 02:05:42;;;;;;;8.80;4.25;;;16.30;99.90;;;16.65;97.37;100805.28;4920070;29;20103;-66
2024/04/07 02:08:09;;;;;;;10.40;5.10;;;16.30;99.90;;;16.69;96.93;100822.06;4920197;29;20047;-67
2024/04/07 02:10:35;;;;;;;9.82;4.68;;;16.30;99.90;;;16.69;97.10;100806.94;4919968;29;20039;-65
2024/04/07 02:13:03;;;;;;;8.88;4.68;;;16.40;99.90;;;16.61;97.46;100834.78;4920471;29;20043;-66
2024/04/07 02:15:35;;;;;;;14.50;5.25;;;16.30;99.90;;;16.63;97.67;100812.47;4919838;29;20048;-66
2024/04/07 02:18:02;;;;;;;9.10;4.07;;;16.30;99.90;;;16.59;96.94;100805.44;4920000;29;20044;-66
2024/04/07 02:20:28;;;;;;;7.68;4.18;;;16.30;99.90;;;16.54;95.91;100795.84;4919672;29;20048;-66
2024/04/07 02:22:56;;;;;;;5.65;3.97;;;16.30;99.90;;;16.51;95.48;100786.09;4919979;29;20047;-66
2024/04/07 02:25:22;;;;;;;8.48;3.65;;;16.20;99.90;;;16.57;94.97;100787.75;4920285;29;20056;-67
2024/04/07 02:27:49;;;;;;;8.68;3.90;;;16.20;99.90;;;16.54;94.10;100775.34;4920253;29;20051;-66
2024/04/07 02:30:16;;;;;;;5.65;3.60;;;16.30;99.90;;;16.47;93.79;100778.22;4919764;29;20079;-67
2024/04/07 02:32:44;;;;;;;7.38;3.97;;;16.20;99.90;;;16.39;92.84;100785.59;4919393;29;20039;-67
2024/04/07 02:35:12;;;;;;;7.93;3.60;;;16.10;99.90;;;16.45;92.75;100786.28;4919505;29;20047;-67
2024/04/07 02:37:39;;;;;;;7.97;4.00;;;16.10;99.90;;;16.43;92.53;100804.16;4919728;29;20485;-66
2024/04/07 02:40:08;;;;;;;5.50;3.55;;;16.20;99.90;;;16.42;92.01;100804.16;4919863;29;20040;-67
2024/04/07 02:42:36;;;;;;;8.18;4.07;;;16.20;99.90;;;16.39;92.18;100789.13;4919759;29;20055;-67
2024/04/07 02:48:05;;;;;;;5.28;3.67;;;16.20;99.90;;;16.56;91.58;100826.03;4919342;29;20167;-67
2024/04/07 02:50:33;;;;;;;6.82;3.80;;;16.20;99.90;;;16.50;91.66;100827.09;4919501;29;20053;-68
2024/04/07 02:52:59;;;;;;;6.03;3.95;;;16.20;99.90;;;16.51;90.79;100819.97;4919453;29;20288;-65
2024/04/07 02:55:27;;;;;;;5.90;3.78;;;16.20;99.90;;;16.59;89.91;100837.50;4919437;29;20056;-66
2024/04/07 02:57:53;;;;;;;4.82;3.45;;;16.20;99.90;;;16.64;89.65;100846.28;4919621;29;20043;-66
2024/04/07 03:00:21;;;;;;;6.88;3.83;;;16.30;99.90;;;16.70;89.35;100855.91;4919264;29;20063;-67
2024/04/07 03:02:48;;;;;;;5.25;3.50;;;16.30;99.90;;;16.71;88.80;100834.47;4917921;29;20481;-66
2024/04/07 03:05:17;;;;;;;5.78;3.83;;;16.30;99.90;;;16.69;88.14;100822.97;4935027;29;20052;-67
2024/04/07 03:07:46;;;;;;;5.85;3.65;;;16.40;99.90;;;16.70;88.11;100831.84;4919102;29;20462;-66
2024/04/07 03:10:16;;;;;;;6.20;3.70;;;16.30;99.90;;;16.72;87.77;100827.34;4919509;29;20047;-67
2024/04/07 03:12:42;;;;;;;5.15;3.25;;;16.40;99.90;;;16.74;87.69;100828.19;4919181;29;20058;-66
2024/04/07 03:15:10;;;;;;;5.18;3.50;;;16.40;99.90;;;16.72;87.88;100849.59;4919119;29;20571;-67
2024/04/07 03:17:36;;;;;;;6.55;3.88;;;16.40;99.90;;;16.68;87.20;100831.03;4934635;29;20040;-66
2024/04/07 03:20:07;;;;;;;6.53;3.40;;;16.40;99.90;;;16.79;87.58;100843.13;4903155;29;20480;-67
2024/04/07 03:22:33;;;;;;;5.75;3.63;;;16.40;99.90;;;16.80;87.18;100852.88;4918817;29;20044;-67
2024/04/07 03:25:00;;;;;;;4.55;3.47;;;16.40;99.90;;;16.80;86.92;100852.88;4918911;29;20043;-66
2024/04/07 03:27:27;;;;;;;7.78;3.60;;;16.50;99.90;;;16.78;86.63;100860.06;4919102;29;20134;-67
2024/04/07 03:29:54;;;;;;;5.43;3.88;;;16.50;99.90;;;16.80;86.38;100868.91;4919206;29;20438;-67
2024/04/07 03:32:21;;;;;;;5.70;3.25;;;16.50;99.90;;;16.61;85.96;100853.47;4918611;29;20397;-67
2024/04/07 03:34:48;;;;;;;8.57;4.03;;;16.40;99.90;;;16.68;85.65;100863.06;4918751;29;20099;-67
2024/04/07 03:37:17;;;;;;;8.95;3.58;;;16.40;99.90;;;16.78;86.08;100867.22;4918784;29;20055;-66
2024/04/07 03:39:43;;;;;;;4.88;3.35;;;16.40;99.90;;;16.82;85.81;100859.06;4918376;29;20054;-68
2024/04/07 03:42:10;;;;;;;5.60;3.45;;;16.50;99.90;;;16.84;86.13;100875.94;4918464;29;20055;-67
2024/04/07 03:44:38;;;;;;;6.80;3.88;;;16.50;99.90;;;16.91;85.94;100872.16;4918594;29;20047;-67
2024/04/07 03:47:06;;;;;;;5.43;3.25;;;16.50;99.90;;;16.95;85.79;100863.13;4918786;29;20123;-67
2024/04/07 03:49:32;;;;;;;4.82;3.50;;;16.60;99.90;;;16.83;85.38;100874.19;4934295;29;20044;-67
2024/04/07 03:52:00;;;;;;;5.20;3.22;;;16.50;99.90;;;16.85;85.57;100885.72;4918340;29;20054;-67
2024/04/07 03:54:27;;;;;;;5.75;3.20;;;16.50;99.90;;;16.86;85.77;100889.25;4918137;29;20055;-67
2024/04/07 03:56:55;;;;;;;5.80;4.15;;;16.50;99.90;;;16.81;86.06;100884.03;4918315;29;20131;-67
2024/04/07 03:59:21;;;;;;;6.90;3.95;;;16.50;99.90;;;16.77;86.23;100878.81;4918093;29;20103;-67
2024/04/07 04:01:49;;;;;;;4.97;3.25;;;16.40;99.90;;;16.76;86.43;100874.41;4918173;29;20131;-67
2024/04/07 04:04:16;;;;;;;6.20;3.58;;;16.40;99.90;;;16.72;86.47;100881.66;4918246;29;20122;-67
2024/04/07 04:06:43;;;;;;;6.95;3.63;;;16.40;99.90;;;16.69;86.77;100892.41;4918054;29;20082;-67
2024/04/07 04:09:09;;;;;;;5.82;3.35;;;16.40;99.90;;;16.73;86.57;100915.44;4917777;29;20070;-67
2024/04/07 04:11:38;;;;;;;4.25;3.80;;;16.40;99.90;;;16.72;86.24;100902.13;4918160;29;20130;-67
2024/04/07 04:14:04;;;;;;;5.55;3.63;;;16.30;99.90;;;16.71;86.36;100900.38;4917565;29;20095;-67
2024/04/07 04:16:32;;;;;;;7.78;3.95;;;16.30;99.90;;;16.62;86.39;100901.53;4917845;29;20051;-67
2024/04/07 04:18:58;;;;;;;8.35;3.90;;;16.30;99.90;;;16.66;86.48;100907.66;4917896;29;20063;-67
2024/04/07 04:21:25;;;;;;;6.95;3.65;;;16.30;99.90;;;16.76;86.53;100909.16;4917744;29;20039;-66
2024/04/07 04:23:52;;;;;;;3.97;3.45;;;16.30;99.90;;;16.77;86.51;100906.44;4933623;29;20063;-67
2024/04/07 04:26:19;;;;;;;4.88;4.05;;;16.40;99.90;;;16.73;86.64;100910.09;4917951;29;20047;-67
2024/04/07 04:28:47;;;;;;;4.63;3.53;;;16.40;99.90;;;16.62;86.54;100917.56;4917757;29;20047;-69
2024/04/07 04:31:14;;;;;;;4.53;3.40;;;16.30;99.90;;;16.05;86.78;100836.34;4917269;29;20044;-67
2024/04/07 04:33:41;;;;;;;6.15;3.63;;;16.30;99.90;;;16.59;87.01;100930.13;4917733;29;20055;-68
2024/04/07 04:36:13;;;;;;;8.25;4.15;;;16.20;99.90;;;16.66;87.18;100929.03;4917447;29;20523;-67
2024/04/07 04:38:39;;;;;;;6.75;3.60;;;16.30;99.90;;;16.53;87.10;100920.47;4917833;29;20060;-67
2024/04/07 04:41:07;;;;;;;10.38;4.63;;;16.30;99.90;;;16.66;87.28;100942.38;4917292;29;20079;-67
2024/04/07 04:43:33;;;;;;;8.57;4.07;;;16.30;99.90;;;16.61;87.46;100941.63;4917354;29;20103;-66
2024/04/07 04:46:05;;;;;;;4.13;3.70;;;16.20;99.90;;;16.58;87.92;100953.28;4917369;29;20063;-67
2024/04/07 04:48:32;;;;;;;6.88;3.70;;;16.20;99.90;;;16.57;87.83;100948.84;4933516;29;20445;-66
2024/04/07 04:51:00;;;;;;;5.43;3.67;;;16.20;99.90;;;16.57;88.06;100951.50;4917208;29;20066;-67
2024/04/07 04:53:26;;;;;;;6.63;3.65;;;16.20;99.90;;;16.51;88.15;100965.03;4917347;29;20571;-67
2024/04/07 04:55:53;;;;;;;6.07;3.33;;;16.10;99.90;;;16.58;88.34;100957.72;4917485;29;20453;-67
2024/04/07 04:58:20;;;;;;;5.07;3.33;;;16.10;99.90;;;16.51;88.40;100962.34;4917515;29;20078;-67
2024/04/07 05:00:48;;;;;;;6.97;3.72;;;16.10;99.90;;;16.45;88.49;100967.84;4916976;29;20449;-67
2024/04/07 05:03:16;;;;;;;4.40;3.45;;;16.10;99.90;;;16.43;88.83;100967.03;4933025;29;20051;-66
2024/04/07 05:05:43;;;;;;;5.82;3.42;;;16.00;99.90;;;16.32;88.68;100945.03;4917283;29;20429;-67
2024/04/07 05:08:09;;;;;;;6.15;3.60;;;16.00;99.90;;;16.40;88.91;100974.22;4916931;29;20047;-66
2024/04/07 05:10:37;;;;;;;4.57;3.38;;;16.00;99.90;;;16.50;88.80;100973.09;4916951;29;20138;-67
2024/04/07 05:13:03;;;;;;;4.95;3.28;;;16.00;99.90;;;16.47;88.84;100973.16;4917423;29;20051;-67
2024/04/07 05:15:31;;;;;;;7.75;3.95;;;16.10;99.90;;;16.51;88.95;100978.38;4916849;29;20054;-67
2024/04/07 05:17:57;;;;;;;7.68;4.03;;;16.10;99.90;;;16.58;89.01;100988.00;4917020;29;20036;-68
2024/04/07 05:20:26;;;;;;;5.30;3.40;;;16.20;99.90;;;16.63;88.83;101001.22;4916680;29;20044;-67
2024/04/07 05:22:53;;;;;;;7.63;3.83;;;16.20;99.90;;;16.72;88.75;100998.31;4916861;29;20449;-67
2024/04/07 05:25:20;;;;;;;5.45;3.60;;;16.30;99.90;;;16.75;88.84;101000.88;4916166;29;20575;-67
2024/04/07 05:27:46;;;;;;;6.47;4.22;;;16.30;99.90;;;16.76;88.80;101008.00;4916882;29;20555;-67
2024/04/07 05:30:14;;;;;;;9.07;4.43;;;16.40;99.90;;;16.81;88.95;101012.28;4916823;29;20050;-67
2024/04/07 05:32:40;;;;;;;5.95;3.78;;;16.40;99.90;;;16.82;88.71;100995.31;4916514;29;20410;-67
2024/04/07 05:35:08;;;;;;;8.30;3.72;;;16.40;99.90;;;16.89;88.54;101012.06;4916896;29;20131;-66
2024/04/07 05:37:36;;;;;;;7.10;3.58;;;16.50;99.90;;;16.97;88.50;101023.44;4916954;29;20056;-67
2024/04/07 05:40:05;;;;;;;6.72;4.00;;;16.50;99.90;;;16.94;88.35;101011.00;4916389;29;20052;-67
2024/04/07 05:42:31;;;;;;;5.78;3.60;;;16.50;99.90;;;16.69;88.78;101009.06;4916598;29;20044;-67
2024/04/07 05:44:58;;;;;;;4.57;3.53;;;16.30;99.90;;;16.84;89.01;101014.84;4916518;29;20387;-67
2024/04/07 05:47:25;;;;;;;4.13;3.40;;;16.40;99.90;;;16.31;88.69;100921.06;4916645;29;20055;-67
2024/04/07 05:49:53;;;;;;;4.05;3.53;;;16.50;99.90;;;16.90;88.76;101024.50;4916621;29;20047;-67
2024/04/07 05:52:21;;;;;;;6.43;4.10;;;16.50;99.90;;;16.95;88.26;101028.81;4916386;29;20251;-67
2024/04/07 05:54:48;;;;;;;7.32;3.83;;;16.60;99.90;;;16.99;88.04;101033.13;4916316;29;20040;-67
2024/04/07 05:57:16;;;;;;;5.65;3.60;;;16.60;99.90;;;17.10;87.86;101033.72;4916579;29;20135;-67
2024/04/07 05:59:42;;;;;;;7.07;3.90;;;16.70;99.90;;;16.92;87.08;101023.53;4916158;29;20454;-67
2024/04/07 06:02:10;;;;;;;5.32;3.72;;;16.70;99.90;;;17.20;87.20;101045.03;4916552;29;20047;-67
2024/04/07 06:04:36;;;;;;;5.90;3.53;;;16.80;99.90;;;17.19;86.61;101042.41;4916274;29;20047;-68
2024/04/07 06:07:04;;;;;;;6.57;3.80;;;16.80;99.90;;;17.07;86.38;101039.16;4916259;29;20044;-71
2024/04/07 06:09:30;;;;;;;5.65;3.58;;;16.80;99.90;;;17.13;86.65;101041.66;4916158;29;20457;-70
2024/04/07 06:11:59;;;;;;;5.15;3.55;;;16.80;99.90;;;17.20;86.50;101050.38;4916293;29;20078;-69
2024/04/07 06:14:28;;;;;;;5.47;4.03;;;16.80;99.90;;;17.22;86.51;101047.66;4916197;29;20052;-68
2024/04/07 06:16:54;;;;;;;4.22;3.63;;;16.80;99.90;;;17.23;86.52;101049.44;4916255;29;20047;-69
2024/04/07 06:19:22;;;;;;;4.63;3.45;;;16.80;99.90;;;17.20;86.63;101045.03;4916310;29;20050;-69
2024/04/07 06:21:49;;;;;;;8.55;3.58;;;16.80;99.90;;;17.14;86.78;101051.44;4916418;29;20054;-69
2024/04/07 06:24:16;;;;;;;5.15;3.40;;;16.70;99.90;;;17.02;87.12;101045.53;4916404;29;20048;-68
2024/04/07 06:26:42;;;;;;;5.80;3.45;;;16.70;99.90;;;17.19;87.40;101053.09;4916044;29;20043;-69
2024/04/07 06:29:11;;;;;;;8.40;3.80;;;16.80;99.90;;;17.21;87.04;101083.34;4916177;29;20043;-69
2024/04/07 06:31:38;;;;;;;4.38;3.85;;;16.80;99.90;;;16.53;87.31;100922.28;4916167;29;20071;-69
2024/04/07 06:34:05;;;;;;;7.45;3.63;;;16.90;99.90;;;17.56;87.01;101065.38;4916087;29;20536;-69
2024/04/07 06:36:33;;;;;;;7.68;3.65;;;17.10;99.90;;;17.70;86.31;101056.94;4917907;29;20051;-69
2024/04/07 06:39:01;;;;;;;6.32;3.63;;;17.30;99.90;;;17.70;85.14;101073.88;4919620;29;20047;-69
2024/04/07 06:41:27;;;;;;;6.40;3.67;;;17.30;99.90;;;17.95;84.90;101065.97;4919439;29;20043;-68
2024/04/07 06:43:55;;;;;;;4.18;3.25;;;17.50;99.90;;;18.16;84.09;101057.25;4919536;29;20394;-68
2024/04/07 06:46:23;;;;;;;7.90;3.53;;;17.70;99.90;;;18.04;83.01;101054.94;4919372;29;20059;-69
2024/04/07 06:48:51;;;;;;;10.68;3.95;;;17.70;99.90;;;18.20;82.61;101083.00;4919468;29;20405;-70
2024/04/07 06:51:17;;;;;;;6.85;3.40;;;17.80;99.90;;;18.43;82.29;101064.41;4919363;29;20043;-68
2024/04/07 06:53:44;;;;;;;7.10;3.95;;;18.00;99.90;;;18.58;81.18;101073.75;4919281;29;20052;-68
2024/04/07 06:56:11;;;;;;;7.72;4.00;;;18.20;99.90;;;18.60;80.76;101078.09;4919365;29;20056;-70
2024/04/07 06:58:39;;;;;;;5.35;3.33;;;18.20;99.90;;;18.78;80.85;101087.31;4919519;29;20060;-68
2024/04/07 07:01:05;;;;;;;9.23;4.20;;;18.40;99.90;;;18.80;79.95;101097.06;4919347;29;20039;-68
2024/04/07 07:03:34;;;;;;;6.95;3.95;;;18.40;99.90;;;18.78;79.34;101074.81;4919158;29;20051;-69
2024/04/07 07:06:01;;;;;;;6.72;3.78;;;18.40;99.90;;;18.70;79.83;101090.25;4919319;29;20139;-69
2024/04/07 07:08:29;;;;;;;5.90;3.67;;;18.30;99.90;;;18.77;79.93;101099.88;4903091;29;20051;-69
2024/04/07 07:10:59;;;;;;;7.15;3.50;;;18.30;99.90;;;18.34;80.16;101023.63;4919055;29;20103;-68
2024/04/07 07:13:27;;;;;;;7.63;3.85;;;18.40;99.90;;;18.82;79.90;101092.53;4919280;29;20070;-70
2024/04/07 07:15:54;;;;;;;8.23;3.80;;;18.40;99.90;;;18.91;79.52;101097.56;4919003;29;20048;-69
2024/04/07 07:18:22;;;;;;;7.50;4.13;;;18.50;99.90;;;19.00;79.82;101099.06;4919032;29;20405;-68
2024/04/07 07:20:50;;;;;;;4.72;3.60;;;18.60;99.90;;;18.97;79.63;101107.19;4918875;29;20058;-67
2024/04/07 07:23:17;;;;;;;6.55;3.85;;;18.50;99.90;;;18.96;79.44;101107.25;4918867;29;20039;-68
2024/04/07 07:25:43;;;;;;;8.25;3.92;;;18.60;99.90;;;18.95;79.28;101116.25;4918640;29;20413;-68
2024/04/07 07:28:11;;;;;;;8.65;3.97;;;18.50;99.90;;;18.98;79.23;101130.41;4918630;29;20159;-68
2024/04/07 07:30:38;;;;;;;4.90;3.65;;;18.60;99.90;;;18.93;78.27;101127.88;4918908;29;20044;-67
2024/04/07 07:33:06;;;;;;;6.05;3.42;;;18.60;99.90;;;19.02;78.39;101125.81;4918706;29;20059;-68
2024/04/07 07:35:32;;;;;;;6.93;3.83;;;18.60;99.90;;;19.02;77.62;101147.25;4918398;29;20047;-68
2024/04/07 07:38:01;;;;;;;7.32;4.13;;;18.60;99.90;;;19.13;77.69;101129.88;4919252;29;20496;-69
2024/04/07 07:40:28;;;;;;;7.35;3.92;;;18.70;99.90;;;19.13;76.66;101129.88;4918310;29;20067;-69
2024/04/07 07:42:55;;;;;;;9.32;3.90;;;18.80;99.90;;;19.04;76.32;101108.75;4918332;29;20043;-68
2024/04/07 07:45:21;;;;;;;7.20;3.78;;;18.80;99.90;;;18.99;75.65;101145.56;4918512;29;20048;-69
2024/04/07 07:47:53;;;;;;;9.10;4.13;;;18.70;99.90;;;18.93;75.63;101146.66;4917537;29;20052;-68
2024/04/07 07:50:20;;;;;;;8.05;3.90;;;18.60;99.90;;;19.02;76.32;101152.63;4918228;29;20054;-68
2024/04/07 07:52:47;;;;;;;8.35;4.07;;;18.60;99.90;;;18.98;77.00;101141.13;4918249;29;20044;-68
2024/04/07 07:55:17;;;;;;;7.75;3.75;;;18.60;99.90;;;19.05;77.38;101131.09;4918119;29;20442;-68
2024/04/07 07:57:43;;;;;;;6.35;4.22;;;18.60;99.90;;;19.16;77.45;101134.25;4918314;29;20151;-67
2024/04/07 08:00:12;;;;;;;6.72;3.95;;;18.70;99.90;;;19.14;76.62;101136.13;4918124;29;20043;-68
2024/04/07 08:02:38;;;;;;;5.95;3.72;;;18.80;99.90;;;19.19;76.24;101140.38;4917983;29;20043;-68
2024/04/07 08:05:07;;;;;;;6.65;3.72;;;18.80;99.90;;;19.26;75.38;101149.94;4918158;29;20052;-68
2024/04/07 08:07:34;;;;;;;10.85;4.60;;;18.90;99.90;;;19.24;75.03;101153.66;4917892;29;20505;-68
2024/04/07 08:10:03;;;;;;;5.78;3.60;;;18.90;99.90;;;19.30;73.58;101169.53;4917869;29;20043;-68
2024/04/07 08:12:31;;;;;;;8.57;4.40;;;18.90;99.90;;;19.48;72.07;101139.38;4917758;29;20044;-68
2024/04/07 08:14:58;;;;;;;8.65;4.03;;;19.10;99.90;;;19.57;70.07;101153.31;4917679;29;20044;-68
2024/04/07 08:17:26;;;;;;;7.68;3.78;;;19.20;99.90;;;19.64;69.28;101156.66;4917677;29;20059;-68
2024/04/07 08:19:53;;;;;;;10.10;4.75;;;19.30;99.90;;;19.82;68.77;101147.06;4917701;29;20135;-68
2024/04/07 08:22:20;;;;;;;8.35;3.88;;;19.40;99.90;;;19.78;67.44;101159.72;4917698;29;20050;-69
2024/04/07 08:24:47;;;;;;;9.27;4.15;;;19.40;99.90;;;19.80;68.11;101160.53;4917548;29;20040;-69
2024/04/07 08:27:15;;;;;;;9.00;3.65;;;19.40;99.90;;;19.92;69.16;101162.72;4917771;29;20055;-68
2024/04/07 08:29:44;;;;;;;7.93;3.95;;;19.50;99.90;;;19.90;70.59;101169.97;4917530;29;20048;-69
2024/04/07 08:32:12;;;;;;;9.63;4.13;;;19.50;99.90;;;20.06;71.57;101163.09;4917459;29;20056;-69
2024/04/07 08:34:39;;;;;;;9.27;3.35;;;19.60;99.90;;;20.12;72.68;101164.66;4917948;29;20154;-68
2024/04/07 08:37:08;;;;;;;8.23;4.35;;;19.70;99.90;;;19.92;72.84;101181.53;4917405;29;20040;-68
2024/04/07 08:39:35;;;;;;;9.57;3.90;;;19.60;99.90;;;19.90;74.57;101188.78;4917564;29;20265;-68
2024/04/07 08:42:03;;;;;;;7.28;4.13;;;19.50;99.90;;;19.88;73.55;101165.63;4917392;29;20040;-69
2024/04/07 08:44:31;;;;;;;7.70;3.70;;;19.50;99.90;;;20.01;72.81;101186.59;4917450;29;20172;-69
2024/04/07 08:47:01;;;;;;;6.57;3.78;;;19.60;99.90;;;19.70;72.50;101134.97;4917209;29;20054;-68
2024/04/07 08:49:29;;;;;;;7.88;4.25;;;19.60;99.90;;;19.84;70.38;101178.25;4917084;29;20131;-69
2024/04/07 08:51:58;;;;;;;6.80;3.60;;;19.50;99.90;;;19.85;70.04;101166.59;4917350;29;20517;-69
2024/04/07 08:54:25;;;;;;;10.40;3.97;;;19.50;99.90;;;19.94;68.93;101189.56;4917145;29;20044;-69
2024/04/07 08:56:53;;;;;;;6.82;4.05;;;19.60;99.90;;;20.09;67.76;101205.94;4916957;29;20047;-68
2024/04/07 08:59:24;;;;;;;9.60;4.32;;;19.70;99.90;;;20.04;64.32;101196.31;4917179;29;20047;-68
2024/04/07 09:01:53;;;;;;;10.52;3.90;;;19.70;99.90;;;19.98;64.39;101183.09;4916766;29;20047;-68
2024/04/07 09:04:22;;;;;;;6.18;4.03;;;19.70;99.90;;;19.94;65.11;101190.41;4917019;29;20050;-68
2024/04/07 09:06:48;;;;;;;8.05;3.60;;;19.60;99.90;;;20.10;66.32;101201.44;4916874;29;20047;-68
2024/04/07 09:09:16;;;;;;;10.30;4.32;;;19.70;99.90;;;20.28;66.39;101184.66;4916965;29;20050;-68
2024/04/07 09:11:46;;;;;;;7.07;4.05;;;19.90;99.90;;;20.28;65.83;101179.28;4916669;29;20078;-69
2024/04/07 09:14:13;;;;;;;8.57;4.15;;;19.90;99.90;;;20.21;66.42;101194.75;4916877;29;20222;-68
2024/04/07 09:16:40;;;;;;;7.05;4.05;;;19.90;99.90;;;20.08;64.75;101188.09;4916791;29;20044;-69
2024/04/07 09:19:08;;;;;;;7.50;3.95;;;19.70;99.90;;;20.18;67.08;101194.91;4916558;29;20066;-69
2024/04/07 09:21:35;;;;;;;8.70;4.47;;;19.80;99.90;;;20.45;67.53;101196.50;4916787;29;20046;-68
2024/04/07 09:24:03;;;;;;;7.80;3.75;;;20.10;99.90;;;20.51;66.95;101196.25;4916877;29;20103;-69
2024/04/07 09:26:30;;;;;;;6.57;4.00;;;20.10;99.90;;;20.64;66.55;101207.38;4916550;29;20039;-68
2024/04/07 09:28:57;;;;;;;7.00;3.90;;;20.30;99.90;;;20.62;66.35;101191.31;4916790;29;20036;-69
2024/04/07 09:31:23;;;;;;;7.05;3.72;;;20.30;99.90;;;20.34;63.58;101197.88;4916353;29;20047;-69
2024/04/07 09:33:51;;;;;;;6.05;3.80;;;20.10;99.90;;;20.37;64.81;101205.78;4916676;29;20044;-69
2024/04/07 09:36:17;;;;;;;7.85;3.88;;;20.00;99.90;;;20.41;65.50;101202.94;4916765;29;20047;-69
2024/04/07 09:38:46;;;;;;;10.85;4.07;;;20.00;99.90;;;20.56;67.07;101209.50;4916665;29;20047;-69
2024/04/07 09:41:14;;;;;;;8.43;3.60;;;20.20;99.90;;;20.32;63.59;101213.16;4916272;29;20043;-70
2024/04/07 09:43:46;;;;;;;6.15;3.78;;;20.00;99.90;;;20.23;63.66;101211.69;4916568;29;20051;-61
2024/04/07 09:46:18;;;;;;;6.97;3.45;;;19.90;99.90;;;20.01;62.67;101223.28;4916559;29;20102;-61
2024/04/07 09:48:45;;;;;;;6.82;3.83;;;19.70;99.90;;;19.97;65.33;101210.91;4916034;29;20060;-63
2024/04/07 09:51:20;;;;;;;5.55;3.50;;;19.60;99.90;;;19.92;64.54;101221.81;4916466;29;20072;-61
2024/04/07 09:53:57;;;;;;;6.15;3.80;;;19.50;99.90;;;19.82;65.25;101223.13;4916556;29;20036;-62
2024/04/07 09:56:28;;;;;;;6.80;3.75;;;19.40;99.90;;;19.70;65.16;101226.25;4916421;29;20058;-62
2024/04/07 09:58:56;;;;;;;8.13;3.50;;;19.30;99.90;;;19.80;62.72;101223.13;4916368;29;20040;-68
2024/04/07 10:01:24;;;;;;;6.07;3.55;;;19.40;99.90;;;20.12;62.79;101242.56;4916444;29;20156;-69
2024/04/07 10:03:53;;;;;;;10.95;3.60;;;19.70;99.90;;;20.27;60.59;101225.88;4916308;29;20079;-68
2024/04/07 10:06:20;;;;;;;6.13;3.75;;;19.80;99.90;;;20.34;58.88;101238.16;4916379;29;20047;-63
2024/04/07 10:08:51;;;;;;;8.75;3.33;;;20.00;99.90;;;20.23;58.92;101214.38;4916332;29;20216;-62
2024/04/07 10:11:18;;;;;;;6.97;3.72;;;20.00;99.90;;;20.37;58.58;101232.66;4933688;29;20091;-61
2024/04/07 10:13:46;;;;;;;7.75;3.28;;;20.00;99.90;;;20.42;58.76;101218.09;4920088;29;20036;-62